Norway, MI (49870)

08:19 AM CST on Ιανουάριος 27, 2015 (GMT -0600)
Downtown | Change Station
CLOSE
Current Station
Personal Weather Stations
Location: Norway, MI
Elevation: 942 ft
Nearby Weather Stations

Elev 942 ft 45.79 °N, 87.91 °W | Updated 5 seconds ago

Νεφοσκεπής
Νεφοσκεπής
17.5 ° F
Feels Like 18 ° F
N
2.3
Ανεμος Μεταβλητός Ανεμος from ΒΑ
Gusts 2.3 mph

Σήμερα
High -- | Low -- ° F
--% Chance of Precip.
Yesterday
High -- | Low -- ° F
Precip. -- in
7:19 AM 4:50 PM
Πρώτο τέταρτο, 54% visible
Ατμοσφαιρική Πίεση 30.13 in
Ορατότητα 8.0 Μίλια
Σύννεφα Νεφελώδης 700 ft
Νεφοσκεπής 2500 ft
Δείκτης Ψυχρότητας 18 ° F
Σημείο Δρόσου 16 ° F
Υγρασία 92%
Rainfall 0.00 in
Snow Depth Not available.
Υπεριώδης ακτινοβολία (UV) 0 out of 12
Pollen .10 out of 12
Air Quality Not available.
Flu Activity Not available.
SPECI KIMT 271415Z AUTO 33004KT 8SM BKN007 OVC025 M09/M11 A3013 RMK AO2 CIG 004V010 T10941111

More Conditions Fewer Conditions

Ατμοσφαιρική Πίεση 30.13 in
Ορατότητα 8.0 Μίλια
Σύννεφα Νεφελώδης 700 ft
Νεφοσκεπής 2500 ft
Δείκτης Ψυχρότητας 18 ° F
Σημείο Δρόσου 16 ° F
Υγρασία 92%
Rainfall 0.00 in
Snow Depth Not available.
Υπεριώδης ακτινοβολία (UV) 0 out of 12
Pollen .10 out of 12
Air Quality Not available.
Flu Activity Not available.
SPECI KIMT 271415Z AUTO 33004KT 8SM BKN007 OVC025 M09/M11 A3013 RMK AO2 CIG 004V010 T10941111

More Conditions Fewer Conditions

10-Day Weather Forecast

Almanac

Αστρονομία

Jan. 27, 2015 Rise Set
Actual Time
Civil Twilight
Nautical Twilight
Astronomical Twilight
Moon
Length Of Visible Light
Διάρκεια ημέρας
Tomorrow will be .
, % of the Moon is Illuminated

Today's Extremes

State Highs State Lows

Community

WunderPhotos

Upload Photos

1,790,637 photos uploaded!

WunderBlogs® & News

Nearby

Air Quality

  Air Quality AQ Index Pollutant
Not available.

Snow Depth

Station Depth Elevation

Earthquake Activity

City Distance Mag. Time & Date
Minimum magnitude displayed is 2.5.

Coastal Water Temperatures

Τοποθεσία Θερμοκρασία

Nearby Weather Stations